Time;durP1;ratioP1;P1;durP2;ratioP2;P2;SDS_P1;SDS_P2;PMS_P1;PMS_P2;Temp;Humidity;BMP_temperature;BMP_pressure;BME280_temperature;BME280_humidity;BME280_pressure;Samples;Min_cycle;Max_cycle;Signal;HPM_P1;HPM_P2
2021/08/09 00:02:20;;;;;;;5.10;3.50;;;15.00;99.90;;;14.96;91.20;98368.38;5011363;28;20633;-71
2021/08/09 00:04:48;;;;;;;5.00;3.63;;;15.00;99.90;;;14.96;91.46;98368.38;5031367;28;21272;-71
2021/08/09 00:07:18;;;;;;;4.90;3.00;;;15.00;99.90;;;14.93;91.05;98371.25;5009119;28;20630;-71
2021/08/09 00:09:47;;;;;;;7.10;3.30;;;15.00;99.90;;;14.94;90.73;98370.31;5008102;28;20736;-71
2021/08/09 00:12:15;;;;;;;4.10;3.10;;;15.00;99.90;;;14.93;91.85;98372.13;4992375;28;20629;-72
2021/08/09 00:14:44;;;;;;;5.80;3.53;;;15.00;99.90;;;14.92;90.93;98378.31;5009319;28;20635;-71
2021/08/09 00:17:13;;;;;;;4.33;3.00;;;15.00;99.90;;;14.92;91.42;98370.44;5008300;28;20644;-72
2021/08/09 00:19:41;;;;;;;8.80;3.00;;;15.00;99.90;;;14.93;91.45;98368.63;5010715;28;20791;-71
2021/08/09 00:22:10;;;;;;;4.57;3.40;;;15.00;99.90;;;14.92;91.14;98359.09;5009851;28;20625;-71
2021/08/09 00:24:41;;;;;;;4.13;3.27;;;15.00;99.90;;;14.90;90.63;98364.47;5006742;28;21033;-72
2021/08/09 00:27:10;;;;;;;4.10;3.47;;;15.00;99.90;;;14.90;92.33;98364.47;5010710;28;21256;-71
2021/08/09 00:29:38;;;;;;;4.30;3.43;;;15.00;99.90;;;14.90;91.41;98363.63;5009124;28;20981;-71
2021/08/09 00:32:08;;;;;;;5.00;3.30;;;15.00;99.90;;;14.89;91.93;98362.81;5010733;28;20659;-71
2021/08/09 00:34:38;;;;;;;6.73;3.40;;;15.00;99.90;;;14.88;91.66;98361.13;5029462;28;20625;-71
2021/08/09 00:37:06;;;;;;;4.07;3.07;;;15.00;99.90;;;14.88;91.36;98341.91;5024610;28;20656;-71
2021/08/09 00:39:37;;;;;;;5.20;3.30;;;15.00;99.90;;;14.85;91.30;98350.03;5006079;28;20654;-71
2021/08/09 00:42:08;;;;;;;4.07;3.33;;;14.90;99.90;;;14.85;91.54;98347.41;5030965;28;20671;-71
2021/08/09 00:44:38;;;;;;;7.33;3.10;;;14.90;99.90;;;14.79;91.49;98354.03;5008166;28;20673;-71
2021/08/09 00:47:08;;;;;;;4.30;3.13;;;14.80;99.90;;;14.76;91.42;98346.38;5008028;28;20724;-71
2021/08/09 00:49:37;;;;;;;5.87;3.63;;;14.80;99.90;;;14.72;91.21;98352.84;5006847;28;21205;-71
2021/08/09 00:52:08;;;;;;;6.13;3.30;;;14.80;99.90;;;14.70;91.08;98354.75;5010207;28;20644;-71
2021/08/09 00:54:39;;;;;;;4.53;3.30;;;14.80;99.90;;;14.65;90.28;98356.91;5002643;28;20640;-71
2021/08/09 00:57:11;;;;;;;4.50;3.40;;;14.80;99.90;;;14.60;90.79;98356.44;5009462;28;21264;-71
2021/08/09 00:59:41;;;;;;;5.77;3.43;;;14.70;99.90;;;14.59;90.31;98355.75;5026571;28;20683;-71
2021/08/09 01:02:10;;;;;;;4.67;3.63;;;14.70;99.90;;;14.58;90.42;98352.25;5007289;28;20645;-71
2021/08/09 01:04:41;;;;;;;6.50;3.50;;;14.70;99.90;;;14.58;90.27;98356.69;5027223;28;20736;-71
2021/08/09 01:07:10;;;;;;;5.17;3.40;;;14.70;99.90;;;14.57;90.83;98362.88;5010328;28;20723;-71
2021/08/09 01:09:49;;;;;;;8.10;3.47;;;14.60;99.90;;;14.58;90.18;98359.31;5001814;28;20649;-71
2021/08/09 01:12:30;;;;;;;4.97;3.23;;;14.70;99.90;;;14.54;90.47;98356.09;4994013;28;20652;-71
2021/08/09 01:15:06;;;;;;;4.73;3.43;;;14.60;99.90;;;14.53;90.62;98364.09;5024770;28;20771;-71
2021/08/09 01:17:45;;;;;;;4.20;2.90;;;14.60;99.90;;;14.49;91.20;98360.03;4989720;28;20661;-71
2021/08/09 01:20:29;;;;;;;8.97;3.77;;;14.60;99.90;;;14.47;90.84;98354.09;5005850;28;20701;-71
2021/08/09 01:23:16;;;;;;;3.20;2.90;;;14.60;99.90;;;14.44;90.37;98351.72;5008589;28;20633;-71
2021/08/09 01:25:50;;;;;;;5.53;3.70;;;14.60;99.90;;;14.40;90.57;98345.88;4986762;28;20700;-71
2021/08/09 01:28:25;;;;;;;5.30;3.27;;;14.50;99.90;;;14.40;90.38;98361.63;5026080;28;21019;-71
2021/08/09 01:30:55;;;;;;;3.93;3.30;;;14.50;99.90;;;14.37;90.86;98368.88;5007017;28;20627;-71
2021/08/09 01:33:28;;;;;;;5.10;3.47;;;14.50;99.90;;;14.38;91.06;98373.19;5007686;28;20952;-71
2021/08/09 01:35:59;;;;;;;4.27;2.90;;;14.50;99.90;;;14.38;91.19;98378.44;5006629;28;20636;-71
2021/08/09 01:38:30;;;;;;;5.03;3.40;;;14.50;99.90;;;14.38;90.22;98373.19;5016434;28;20629;-71
2021/08/09 01:40:59;;;;;;;3.97;3.53;;;14.50;99.90;;;14.38;91.26;98374.00;5008775;28;20653;-71
2021/08/09 01:43:34;;;;;;;4.40;3.63;;;14.50;99.90;;;14.36;90.66;98365.44;5025490;28;20656;-71
2021/08/09 01:46:04;;;;;;;4.83;3.33;;;14.50;99.90;;;14.35;91.32;98370.81;5031234;28;20625;-71
2021/08/09 01:48:34;;;;;;;5.47;3.80;;;14.50;99.90;;;14.32;91.37;98374.50;4991293;28;20742;-71
2021/08/09 01:51:05;;;;;;;4.40;3.20;;;14.40;99.90;;;14.29;91.02;98376.53;5010152;28;20633;-71
2021/08/09 01:53:34;;;;;;;4.20;3.40;;;14.40;99.90;;;14.28;90.89;98377.47;5008796;28;20724;-71
2021/08/09 01:56:03;;;;;;;3.80;2.90;;;14.40;99.90;;;14.25;90.76;98377.72;5009322;28;21163;-71
2021/08/09 01:58:33;;;;;;;3.43;3.13;;;14.40;99.90;;;14.21;90.88;98385.00;5006265;28;20648;-72
2021/08/09 02:01:02;;;;;;;5.50;4.47;;;14.30;99.90;;;14.19;90.75;98380.81;5009998;28;20636;-71
2021/08/09 02:03:31;;;;;;;7.57;3.77;;;14.30;99.90;;;14.17;91.09;98374.88;5002780;28;20666;-71
2021/08/09 02:06:00;;;;;;;5.13;3.33;;;14.30;99.90;;;14.14;90.77;98373.31;5009235;28;20632;-71
2021/08/09 02:08:31;;;;;;;6.10;3.27;;;14.20;99.90;;;14.12;90.91;98377.03;5006567;28;20641;-71
2021/08/09 02:11:06;;;;;;;9.70;3.40;;;14.20;99.90;;;14.10;90.83;98371.03;5006096;28;20769;-71
2021/08/09 02:13:44;;;;;;;6.13;3.53;;;14.20;99.90;;;14.08;90.51;98370.34;5005199;28;21187;-71
2021/08/09 02:16:17;;;;;;;5.53;3.93;;;14.20;99.90;;;14.06;90.40;98377.50;5009105;28;20659;-71
2021/08/09 02:18:59;;;;;;;4.00;3.00;;;14.20;99.90;;;14.03;90.56;98371.63;4990829;28;20675;-71
2021/08/09 02:21:34;;;;;;;3.77;3.37;;;14.20;99.90;;;14.02;90.35;98383.06;5009133;28;20641;-71
2021/08/09 02:24:10;;;;;;;4.90;3.33;;;14.20;99.90;;;14.01;91.24;98384.88;5000813;28;21316;-71
2021/08/09 02:26:47;;;;;;;4.97;3.40;;;14.10;99.90;;;14.00;91.39;98383.19;4996879;28;20768;-71
2021/08/09 02:29:24;;;;;;;4.50;3.30;;;14.10;99.90;;;13.97;90.29;98382.59;5020214;28;20630;-71
2021/08/09 02:31:56;;;;;;;5.27;3.80;;;14.10;99.90;;;13.94;90.34;98385.44;5008486;28;20626;-71
2021/08/09 02:34:27;;;;;;;3.50;3.13;;;14.00;99.90;;;13.91;90.89;98385.69;5024359;28;20725;-71
2021/08/09 02:36:56;;;;;;;6.00;3.60;;;14.00;99.90;;;13.88;90.98;98386.75;4993596;28;20681;-71
2021/08/09 02:39:27;;;;;;;3.70;2.93;;;14.00;99.90;;;13.87;91.03;98392.94;5008689;28;20628;-71
2021/08/09 02:41:56;;;;;;;3.37;3.07;;;14.00;99.90;;;13.85;90.92;98386.97;5008879;28;20698;-71
2021/08/09 02:44:27;;;;;;;7.03;3.30;;;14.00;99.90;;;13.84;90.91;98395.78;5023647;28;20792;-72
2021/08/09 02:46:56;;;;;;;5.50;3.90;;;14.00;99.90;;;13.80;90.89;98396.13;5006746;28;21048;-71
2021/08/09 02:49:26;;;;;;;3.50;3.20;;;13.90;99.90;;;13.79;90.85;98392.69;4988927;28;20634;-71
2021/08/09 02:51:55;;;;;;;5.40;3.57;;;13.90;99.90;;;13.77;90.99;98393.75;5008041;28;20658;-71
2021/08/09 02:54:25;;;;;;;6.50;3.20;;;13.90;99.90;;;13.73;90.92;98398.41;4988901;28;20638;-71
2021/08/09 02:56:54;;;;;;;4.70;3.27;;;13.80;99.90;;;13.69;90.77;98399.56;5005005;28;21224;-71
2021/08/09 02:59:23;;;;;;;6.10;3.60;;;13.80;99.90;;;13.68;91.50;98404.94;5005623;28;20685;-71
2021/08/09 03:01:53;;;;;;;5.60;3.30;;;13.80;99.90;;;13.67;91.31;98406.72;5005274;28;21001;-71
2021/08/09 03:04:23;;;;;;;4.60;3.57;;;13.80;99.90;;;13.67;91.10;98398.88;5018647;28;20742;-71
2021/08/09 03:06:52;;;;;;;4.00;2.80;;;13.80;99.90;;;13.65;91.03;98400.78;5023247;28;20666;-71
2021/08/09 03:09:22;;;;;;;4.80;3.63;;;13.80;99.90;;;13.62;91.18;98392.31;5006063;28;20631;-71
2021/08/09 03:11:51;;;;;;;4.47;3.40;;;13.70;99.90;;;13.59;91.48;98394.31;5006771;28;20739;-71
2021/08/09 03:14:23;;;;;;;4.67;3.20;;;13.70;99.90;;;13.57;91.01;98396.22;5024727;28;20662;-71
2021/08/09 03:16:55;;;;;;;4.00;3.27;;;13.70;99.90;;;13.52;91.32;98393.94;4998675;28;20742;-71
2021/08/09 03:19:24;;;;;;;4.00;3.17;;;13.70;99.90;;;13.51;91.01;98392.25;5006727;28;20677;-71
2021/08/09 03:21:54;;;;;;;3.83;3.00;;;13.60;99.90;;;13.50;91.58;98395.00;5018629;28;20632;-71
2021/08/09 03:24:25;;;;;;;5.37;4.03;;;13.60;99.90;;;13.50;91.05;98397.63;5008417;28;21217;-71
2021/08/09 03:26:53;;;;;;;4.60;3.37;;;13.60;99.90;;;13.50;91.23;98395.00;5007556;28;20724;-71
2021/08/09 03:29:22;;;;;;;3.67;3.20;;;13.60;99.90;;;13.49;91.49;98393.34;5006407;28;21036;-71
2021/08/09 03:31:51;;;;;;;3.93;3.53;;;13.60;99.90;;;13.47;90.81;98396.09;5007154;28;20640;-71
2021/08/09 03:34:21;;;;;;;4.87;3.47;;;13.60;99.90;;;13.45;90.82;98403.22;5017526;28;20607;-71
2021/08/09 03:36:52;;;;;;;7.10;3.80;;;13.60;99.90;;;13.47;91.44;98397.84;5005034;28;20665;-71
2021/08/09 03:39:23;;;;;;;4.30;3.90;;;13.60;99.90;;;13.47;91.33;98400.47;5006654;28;20635;-71
2021/08/09 03:41:52;;;;;;;5.13;3.23;;;13.60;99.90;;;13.46;91.64;98393.59;5006779;28;20966;-72
2021/08/09 03:44:20;;;;;;;6.70;3.70;;;13.60;99.90;;;13.46;91.19;98398.81;5014484;28;20672;-72
2021/08/09 03:46:49;;;;;;;7.70;3.60;;;13.60;99.90;;;13.45;91.13;98402.38;5003337;28;20626;-71
2021/08/09 03:49:17;;;;;;;4.20;3.40;;;13.60;99.90;;;13.43;90.85;98396.44;4999892;28;20628;-71
2021/08/09 03:51:47;;;;;;;3.77;3.37;;;13.50;99.90;;;13.41;91.95;98393.06;5001387;28;20624;-71
2021/08/09 03:54:16;;;;;;;4.30;3.23;;;13.50;99.90;;;13.40;91.08;98399.28;5006761;28;20732;-71
2021/08/09 03:56:44;;;;;;;6.70;3.63;;;13.50;99.90;;;13.41;91.03;98399.16;4987843;28;20694;-71
2021/08/09 03:59:13;;;;;;;3.40;3.10;;;13.50;99.90;;;13.40;91.30;98399.28;5026580;28;20994;-71
2021/08/09 04:01:42;;;;;;;5.70;3.33;;;13.50;99.90;;;13.40;91.25;98396.66;5002662;28;20665;-71
2021/08/09 04:04:11;;;;;;;6.17;3.60;;;13.50;99.90;;;13.40;91.94;98402.72;5022329;28;20630;-71
2021/08/09 04:06:39;;;;;;;5.03;3.20;;;13.50;99.90;;;13.38;92.27;98395.91;5025046;28;20642;-71
2021/08/09 04:09:09;;;;;;;4.70;3.37;;;13.50;99.90;;;13.35;92.06;98386.53;5002981;28;20638;-71
2021/08/09 04:11:39;;;;;;;4.10;2.87;;;13.50;99.90;;;13.33;91.23;98393.63;5005926;28;20696;-71
2021/08/09 04:14:08;;;;;;;5.83;3.63;;;13.40;99.90;;;13.31;91.59;98394.72;5009147;28;20635;-71
2021/08/09 04:16:36;;;;;;;4.37;3.37;;;13.40;99.90;;;13.32;90.84;98389.38;5001613;28;20627;-71
2021/08/09 04:19:06;;;;;;;3.43;3.07;;;13.40;99.90;;;13.33;91.18;98390.19;4997091;28;20817;-71
2021/08/09 04:21:35;;;;;;;5.27;3.20;;;13.40;99.90;;;13.36;91.75;98390.78;5005028;28;20986;-71
2021/08/09 04:24:05;;;;;;;4.20;3.53;;;13.40;99.90;;;13.34;91.47;98384.84;5025131;28;20643;-71
2021/08/09 04:26:35;;;;;;;4.33;3.20;;;13.40;99.90;;;13.33;92.25;98388.41;5001527;28;20720;-71
2021/08/09 04:29:03;;;;;;;5.53;3.63;;;13.40;99.90;;;13.33;92.04;98383.16;5004000;28;21012;-71
2021/08/09 04:31:33;;;;;;;3.50;3.20;;;13.40;99.90;;;13.36;92.23;98392.59;4992194;28;20635;-71
2021/08/09 04:34:03;;;;;;;4.30;3.60;;;13.50;99.90;;;13.38;91.65;98388.91;5009222;28;20711;-71
2021/08/09 04:36:31;;;;;;;5.37;3.57;;;13.50;99.90;;;13.39;92.20;98393.19;5006517;28;20667;-71
2021/08/09 04:39:02;;;;;;;8.10;3.53;;;13.50;99.90;;;13.41;91.53;98401.78;5006188;28;20647;-71
2021/08/09 04:41:31;;;;;;;4.03;3.57;;;13.50;99.90;;;13.43;91.45;98406.91;5009788;28;20700;-71
2021/08/09 04:44:05;;;;;;;4.67;3.83;;;13.50;99.90;;;13.45;91.79;98397.97;5007024;28;21237;-72
2021/08/09 04:46:33;;;;;;;4.63;3.50;;;13.60;99.90;;;13.48;91.14;98396.91;5008950;28;20769;-71
2021/08/09 04:49:03;;;;;;;4.20;3.20;;;13.60;99.90;;;13.51;91.95;98400.13;4995438;28;20640;-71
2021/08/09 04:51:32;;;;;;;5.07;3.83;;;13.60;99.90;;;13.52;91.59;98398.38;5011787;28;20691;-71
2021/08/09 04:54:00;;;;;;;5.73;3.60;;;13.60;99.90;;;13.53;91.70;98398.25;4988180;28;20634;-71
2021/08/09 04:56:29;;;;;;;5.07;3.40;;;13.60;99.90;;;13.56;91.67;98402.41;5007170;28;20628;-71
2021/08/09 04:58:57;;;;;;;4.97;3.17;;;13.70;99.90;;;13.59;91.48;98405.66;5010032;28;20688;-71
2021/08/09 05:01:28;;;;;;;5.67;3.70;;;13.70;99.90;;;13.63;91.92;98403.63;4993253;28;20630;-71
2021/08/09 05:03:56;;;;;;;3.80;3.30;;;13.70;99.90;;;13.67;91.50;98411.97;5011067;28;20622;-71
2021/08/09 05:06:27;;;;;;;4.87;3.40;;;13.70;99.90;;;13.72;91.96;98424.72;5008548;28;20667;-71
2021/08/09 05:08:57;;;;;;;6.83;3.47;;;13.80;99.90;;;13.75;91.97;98422.69;5006739;28;21201;-71
2021/08/09 05:11:27;;;;;;;3.97;3.57;;;13.80;99.90;;;13.80;91.08;98410.09;5024540;28;20634;-71
2021/08/09 05:14:05;;;;;;;7.60;4.13;;;13.80;99.90;;;13.83;91.16;98399.38;5009520;28;21027;-71
2021/08/09 05:16:39;;;;;;;6.90;4.03;;;13.90;99.90;;;13.87;91.04;98395.56;5007671;28;20634;-71
2021/08/09 05:19:10;;;;;;;4.40;3.70;;;13.90;99.90;;;13.93;91.02;98402.94;5007304;28;21241;-71
2021/08/09 05:21:40;;;;;;;7.03;3.70;;;14.00;99.90;;;13.98;91.28;98398.22;5004832;28;20633;-71
2021/08/09 05:24:09;;;;;;;4.90;3.73;;;14.00;99.90;;;14.01;90.94;98403.22;5011064;28;20633;-71
2021/08/09 05:26:38;;;;;;;3.80;3.40;;;14.00;99.90;;;14.04;91.10;98400.31;5022391;28;20658;-71
2021/08/09 05:29:07;;;;;;;4.37;3.97;;;14.10;99.90;;;14.09;91.12;98395.63;5002141;28;20661;-71
2021/08/09 05:31:38;;;;;;;5.53;3.50;;;14.10;99.90;;;14.16;91.75;98394.16;5005383;28;20634;-72
2021/08/09 05:34:07;;;;;;;5.67;3.90;;;14.20;99.90;;;14.23;91.19;98393.56;5009205;28;20605;-71
2021/08/09 05:36:36;;;;;;;4.70;3.53;;;14.20;99.90;;;14.33;91.39;98401.59;5004996;28;21221;-72
2021/08/09 05:39:09;;;;;;;4.27;3.43;;;14.30;99.90;;;14.46;90.72;98405.72;5001539;28;20631;-72
2021/08/09 05:41:38;;;;;;;4.30;2.93;;;14.40;99.90;;;14.65;91.40;98393.66;5004927;28;20635;-71
2021/08/09 05:44:08;;;;;;;4.80;3.50;;;14.60;99.90;;;14.90;89.92;98395.13;5020510;28;20647;-72
2021/08/09 05:46:42;;;;;;;4.83;3.90;;;14.80;99.90;;;15.15;88.75;98407.03;5029801;28;20659;-72
2021/08/09 05:49:11;;;;;;;4.97;3.27;;;15.00;99.90;;;15.30;89.29;98404.94;5003686;28;20630;-71
2021/08/09 05:51:40;;;;;;;4.80;3.80;;;15.20;99.90;;;15.54;87.13;98400.31;5006875;28;20637;-71
2021/08/09 05:54:10;;;;;;;4.23;3.77;;;15.40;99.90;;;15.76;87.58;98401.84;4992556;28;20739;-71
2021/08/09 05:56:39;;;;;;;4.83;3.17;;;15.60;99.90;;;16.09;87.33;98412.16;5008284;28;20695;-73
2021/08/09 05:59:09;;;;;;;5.30;3.30;;;15.90;99.90;;;16.44;86.99;98420.53;5005728;28;20639;-72
2021/08/09 06:01:41;;;;;;;7.47;3.60;;;16.20;99.90;;;16.73;85.14;98419.63;5006809;28;20651;-71
2021/08/09 06:04:11;;;;;;;4.70;3.50;;;16.50;99.90;;;16.98;83.50;98410.25;5006644;28;20641;-72
2021/08/09 06:06:43;;;;;;;4.90;4.20;;;16.70;99.90;;;17.27;83.16;98416.44;5020654;28;21225;-72
2021/08/09 06:09:17;;;;;;;6.63;3.73;;;17.00;99.90;;;17.52;82.30;98422.00;5007003;28;21069;-71
2021/08/09 06:11:46;;;;;;;5.37;3.13;;;17.30;99.90;;;17.74;81.70;98427.00;5005745;28;20644;-71
2021/08/09 06:14:14;;;;;;;5.37;3.23;;;17.50;99.50;;;18.04;82.27;98435.56;5006142;28;20645;-71
2021/08/09 06:16:44;;;;;;;4.87;3.23;;;17.80;99.90;;;18.30;80.34;98431.34;5008636;28;20637;-71
2021/08/09 06:19:16;;;;;;;4.00;3.30;;;18.00;99.20;;;18.58;80.59;98439.19;5003736;28;20691;-71
2021/08/09 06:21:45;;;;;;;4.63;3.10;;;18.30;99.00;;;18.74;79.52;98431.44;5009308;28;20641;-72
2021/08/09 06:24:14;;;;;;;4.63;3.37;;;18.40;98.70;;;18.94;79.83;98441.78;5007756;28;20645;-72
2021/08/09 06:26:45;;;;;;;3.60;3.10;;;18.60;97.90;;;19.11;77.31;98432.22;5009018;28;20654;-72
2021/08/09 06:29:15;;;;;;;4.73;3.53;;;18.80;96.80;;;19.22;76.28;98422.28;5000445;28;20740;-71
2021/08/09 06:31:46;;;;;;;7.50;3.20;;;18.90;96.00;;;19.40;78.26;98418.66;5000291;28;20749;-72
2021/08/09 06:34:19;;;;;;;4.50;3.40;;;19.10;96.40;;;19.62;75.86;98426.16;5002181;28;21164;-72
2021/08/09 06:36:48;;;;;;;5.50;2.80;;;19.30;96.00;;;19.86;75.30;98419.28;5007935;28;20624;-72
2021/08/09 06:39:20;;;;;;;3.80;3.13;;;19.50;95.50;;;20.11;76.10;98423.75;5006747;28;20620;-72
2021/08/09 06:41:50;;;;;;;3.80;3.03;;;19.80;95.60;;;20.32;74.32;98427.69;5007186;28;20628;-72
2021/08/09 06:44:28;;;;;;;4.30;2.90;;;20.00;94.20;;;20.47;73.11;98425.31;5000107;28;20609;-72
2021/08/09 06:46:58;;;;;;;8.23;3.00;;;20.20;94.00;;;20.64;74.53;98421.75;5003262;28;21316;-73
2021/08/09 06:49:27;;;;;;;3.60;2.70;;;20.30;93.90;;;20.88;73.97;98422.69;5002907;28;20632;-72
2021/08/09 06:51:56;;;;;;;3.70;2.80;;;20.60;94.20;;;21.23;76.87;98426.00;5002903;28;20727;-72
2021/08/09 06:54:25;;;;;;;6.77;3.10;;;20.90;96.00;;;21.48;74.21;98428.53;5004033;28;20632;-72
2021/08/09 06:57:00;;;;;;;6.13;2.90;;;21.10;94.90;;;21.74;74.13;98423.09;5019870;28;20636;-72
2021/08/09 06:59:29;;;;;;;2.17;1.80;;;21.40;94.30;;;22.01;70.38;98427.09;5005290;28;20667;-72
2021/08/09 07:01:59;;;;;;;3.10;2.80;;;21.60;91.50;;;22.16;70.08;98432.53;4999530;28;20665;-73
2021/08/09 07:04:28;;;;;;;8.17;2.70;;;21.80;91.40;;;22.31;71.34;98429.91;5001605;28;20643;-72
2021/08/09 07:06:57;;;;;;;3.93;2.63;;;22.00;91.90;;;22.65;71.91;98430.47;4999771;28;20737;-72
2021/08/09 07:09:27;;;;;;;2.57;2.10;;;22.30;92.90;;;22.77;67.94;98434.41;5000504;28;20641;-72
2021/08/09 07:11:55;;;;;;;2.20;1.80;;;22.40;89.50;;;22.97;68.16;98422.38;4999841;28;20635;-72
2021/08/09 07:14:25;;;;;;;4.27;2.13;;;22.60;89.20;;;23.18;68.27;98439.41;5007591;28;20633;-73
2021/08/09 07:16:55;;;;;;;2.63;1.70;;;22.80;89.40;;;23.39;66.18;98435.13;5005467;28;20639;-71
2021/08/09 07:19:26;;;;;;;3.70;2.93;;;23.00;86.60;;;23.73;65.78;98441.75;5020557;28;21221;-72
2021/08/09 07:21:56;;;;;;;4.50;3.60;;;23.20;86.20;;;24.05;67.71;98443.34;4984959;28;20645;-72
2021/08/09 07:24:24;;;;;;;2.40;1.43;;;23.60;88.30;;;24.19;64.96;98441.56;5002483;28;21234;-72
2021/08/09 07:26:53;;;;;;;2.03;1.70;;;23.80;84.20;;;24.23;63.15;98440.16;5005938;28;20660;-72
2021/08/09 07:29:23;;;;;;;3.57;1.70;;;23.80;81.00;;;24.25;65.40;98432.84;5005022;28;20651;-72
2021/08/09 07:31:52;;;;;;;2.13;1.87;;;23.90;83.30;;;24.25;65.59;98432.00;5021508;28;20636;-73
2021/08/09 07:34:20;;;;;;;2.43;1.60;;;24.00;83.30;;;24.26;64.23;98433.66;5020112;28;20643;-72
2021/08/09 07:36:51;;;;;;;1.60;1.43;;;24.00;82.10;;;24.22;64.93;98435.00;5002580;28;20631;-72
2021/08/09 07:39:20;;;;;;;4.30;2.40;;;24.00;80.00;;;24.28;65.08;98437.81;5004947;28;20676;-72
2021/08/09 07:41:49;;;;;;;4.90;1.90;;;24.00;81.10;;;23.93;63.01;98431.47;5006013;28;20760;-72
2021/08/09 07:44:18;;;;;;;2.77;1.87;;;23.80;76.20;;;23.54;62.97;98430.72;5001472;28;20636;-72
2021/08/09 07:46:46;;;;;;;3.53;1.90;;;23.50;75.60;;;23.77;64.43;98431.59;4999143;28;20676;-72
2021/08/09 07:49:18;;;;;;;3.20;1.60;;;23.60;78.50;;;23.82;64.89;98429.22;4983966;28;20640;-72
2021/08/09 07:51:47;;;;;;;2.27;1.80;;;23.60;78.60;;;24.07;63.59;98428.84;4985499;28;20642;-72
2021/08/09 07:54:19;;;;;;;2.80;1.90;;;23.80;78.60;;;24.47;64.72;98426.63;5016488;28;20642;-73
2021/08/09 07:56:49;;;;;;;3.00;1.87;;;24.10;80.10;;;24.76;61.79;98438.16;4989629;28;21071;-72
2021/08/09 07:59:18;;;;;;;2.10;1.57;;;24.30;76.30;;;24.94;61.84;98429.75;5001706;28;21117;-72
2021/08/09 08:01:47;;;;;;;4.00;1.90;;;24.60;76.00;;;25.00;61.28;98439.72;5019854;28;20723;-72
2021/08/09 08:04:15;;;;;;;2.33;1.70;;;24.70;74.10;;;25.07;61.57;98440.66;5004360;28;20648;-72
2021/08/09 08:06:44;;;;;;;1.83;1.47;;;24.80;74.00;;;25.23;62.28;98439.44;5006481;28;20669;-72
2021/08/09 08:09:13;;;;;;;3.00;2.00;;;24.90;75.50;;;25.43;61.95;98442.34;5005227;28;20682;-72
2021/08/09 08:11:43;;;;;;;2.23;1.67;;;25.10;74.80;;;25.42;61.31;98440.66;5021156;28;21217;-72
2021/08/09 08:14:12;;;;;;;2.37;1.73;;;25.10;73.00;;;25.51;61.24;98431.53;5005306;28;20630;-72
2021/08/09 08:16:41;;;;;;;2.33;1.73;;;25.20;73.50;;;25.50;61.60;98437.88;4988484;28;20642;-72
2021/08/09 08:19:09;;;;;;;2.20;1.57;;;25.20;73.90;;;25.30;61.46;98435.00;5007521;28;21255;-72
2021/08/09 08:21:38;;;;;;;3.67;1.80;;;25.10;73.20;;;25.31;62.24;98444.66;5006971;28;20649;-72
2021/08/09 08:24:07;;;;;;;6.90;2.40;;;25.00;73.70;;;25.43;60.81;98434.31;5000299;28;21266;-72
2021/08/09 08:26:36;;;;;;;2.50;1.70;;;25.10;72.20;;;25.43;61.42;98429.78;5005862;28;20699;-72
2021/08/09 08:29:06;;;;;;;3.60;1.87;;;25.10;71.70;;;25.48;64.21;98432.72;4993302;28;22780;-73
2021/08/09 08:31:35;;;;;;;1.97;1.77;;;25.10;78.10;;;25.66;61.39;98439.34;5006938;28;20639;-73
2021/08/09 08:34:04;;;;;;;2.40;1.60;;;25.30;73.00;;;25.80;60.76;98440.28;5002608;28;20624;-72
2021/08/09 08:36:33;;;;;;;4.30;1.80;;;25.50;72.00;;;25.85;63.19;98440.56;5002670;28;20624;-72
2021/08/09 08:39:03;;;;;;;2.53;2.00;;;25.50;75.70;;;25.87;62.55;98435.84;5003501;28;20619;-72
2021/08/09 08:41:36;;;;;;;2.63;1.70;;;25.60;74.60;;;25.76;61.44;98429.16;5006614;28;20642;-72
2021/08/09 08:44:07;;;;;;;3.30;2.50;;;25.50;71.60;;;25.77;60.52;98436.16;5005667;28;20633;-72
2021/08/09 08:46:38;;;;;;;2.77;2.03;;;25.50;70.00;;;25.76;60.72;98436.34;5008192;28;20648;-72
2021/08/09 08:49:13;;;;;;;4.23;2.10;;;25.50;70.80;;;25.73;61.06;98424.19;5009188;28;20743;-73
2021/08/09 08:51:43;;;;;;;2.53;1.87;;;25.50;70.20;;;25.71;62.16;98426.22;5005738;28;20673;-73
2021/08/09 08:54:13;;;;;;;2.70;1.90;;;25.40;73.10;;;25.75;61.97;98419.47;4992456;28;20681;-73
2021/08/09 08:56:44;;;;;;;2.20;1.63;;;25.50;72.30;;;25.81;62.20;98423.25;5005812;28;20640;-72
2021/08/09 08:59:15;;;;;;;2.67;1.80;;;25.50;72.50;;;25.97;61.93;98431.81;5009380;28;20638;-73
2021/08/09 09:01:47;;;;;;;2.37;1.63;;;25.70;72.10;;;25.85;59.26;98427.19;5004817;28;20640;-73
2021/08/09 09:04:25;;;;;;;2.30;1.70;;;25.70;69.10;;;25.65;60.79;98429.66;5010875;28;20632;-72
2021/08/09 09:07:04;;;;;;;3.60;1.60;;;25.50;70.10;;;25.53;59.58;98422.31;5001542;28;20986;-72
2021/08/09 09:09:38;;;;;;;4.07;1.50;;;25.40;67.20;;;25.57;60.79;98431.59;5001016;28;20642;-73
2021/08/09 09:12:15;;;;;;;2.33;1.70;;;25.40;68.40;;;25.79;60.75;98434.13;5005871;28;20680;-72
2021/08/09 09:14:47;;;;;;;2.60;1.70;;;25.50;69.30;;;25.86;59.45;98436.84;5008345;28;20639;-73
2021/08/09 09:17:32;;;;;;;2.20;1.47;;;25.60;66.50;;;26.10;60.52;98435.44;5006751;28;20640;-72
2021/08/09 09:20:23;;;;;;;1.63;1.53;;;25.80;69.80;;;26.31;62.15;98439.97;5006348;28;20652;-72
2021/08/09 09:22:52;;;;;;;2.40;1.50;;;26.00;71.10;;;26.38;59.05;98424.78;5030658;28;20659;-73
2021/08/09 09:25:34;;;;;;;2.83;1.70;;;26.10;68.50;;;26.39;60.60;98429.94;5009367;28;20632;-72
2021/08/09 09:28:25;;;;;;;4.50;1.57;;;26.10;69.10;;;26.45;58.67;98425.69;5003866;28;20692;-73
2021/08/09 09:31:01;;;;;;;2.60;1.30;;;26.20;65.80;;;26.37;55.57;98420.44;5005448;28;20656;-73
2021/08/09 09:33:31;;;;;;;3.00;1.30;;;26.10;60.30;;;26.12;55.06;98421.88;5002711;28;20727;-73
2021/08/09 09:36:03;;;;;;;2.03;1.50;;;26.00;58.80;;;26.02;58.33;98424.03;4994355;28;20681;-73
2021/08/09 09:38:41;;;;;;;2.60;1.30;;;25.80;63.50;;;26.14;56.62;98426.00;5005535;28;20622;-72
2021/08/09 09:41:11;;;;;;;2.50;1.27;;;25.90;61.40;;;26.20;56.46;98427.91;5024440;28;20633;-76
2021/08/09 09:43:42;;;;;;;2.80;1.40;;;26.00;61.50;;;26.18;56.27;98423.78;5006829;28;20732;-72
2021/08/09 09:46:26;;;;;;;2.70;1.77;;;25.90;62.00;;;26.25;60.47;98424.66;5002726;28;21786;-72
2021/08/09 09:49:01;;;;;;;2.57;1.53;;;26.00;67.70;;;26.19;57.05;98436.13;4999332;28;20758;-73
2021/08/09 09:51:41;;;;;;;3.10;1.27;;;26.00;61.60;;;25.96;57.70;98429.34;5000647;28;20628;-72
2021/08/09 09:54:10;;;;;;;1.70;1.23;;;25.80;64.50;;;25.93;57.11;98430.53;5005635;28;20665;-73
2021/08/09 09:56:40;;;;;;;3.27;2.83;;;25.70;61.50;;;26.13;58.77;98436.88;5006049;28;21229;-73
2021/08/09 09:59:10;;;;;;;2.20;1.60;;;25.80;64.40;;;26.31;57.04;98440.81;5008933;28;20843;-73
2021/08/09 10:01:42;;;;;;;3.10;1.47;;;26.00;62.70;;;26.36;56.78;98432.19;5002659;28;20232;-72
2021/08/09 10:04:11;;;;;;;2.90;1.60;;;26.00;62.60;;;26.33;57.52;98427.22;5006947;28;20642;-72
2021/08/09 10:06:41;;;;;;;6.03;4.33;;;26.00;63.00;;;26.41;59.15;98430.56;5007802;28;20641;-72
2021/08/09 10:09:14;;;;;;;1.87;1.43;;;26.00;65.40;;;26.61;57.60;98431.53;5007732;28;20661;-73
2021/08/09 10:11:44;;;;;;;2.00;1.47;;;26.20;63.40;;;26.73;57.72;98435.31;5006484;28;21276;-73
2021/08/09 10:14:14;;;;;;;3.67;1.60;;;26.40;63.00;;;26.65;56.93;98430.13;5000697;28;20712;-73
2021/08/09 10:16:44;;;;;;;1.90;1.30;;;26.30;61.40;;;26.74;57.04;98420.91;5005716;28;21126;-73
2021/08/09 10:19:14;;;;;;;2.37;1.40;;;26.40;62.30;;;26.65;57.07;98432.81;5008365;28;21016;-72
2021/08/09 10:21:43;;;;;;;2.70;1.53;;;26.30;60.70;;;26.72;57.68;98433.69;5006813;28;21055;-73
2021/08/09 10:24:37;;;;;;;3.50;1.33;;;26.40;61.10;;;26.64;54.69;98434.66;5006063;28;20613;-72
2021/08/09 10:27:06;;;;;;;2.70;1.93;;;26.40;58.50;;;26.69;57.18;98439.44;5006544;28;20735;-72
2021/08/09 10:30:14;;;;;;;4.33;2.30;;;26.40;61.20;;;26.79;57.52;98439.88;5008930;28;20662;-72
2021/08/09 10:32:46;;;;;;;3.20;1.90;;;26.40;64.10;;;26.65;56.64;98441.66;5006208;28;20648;-71
2021/08/09 10:36:02;;;;;;;3.80;1.50;;;26.30;60.50;;;26.74;58.09;98431.63;5020153;28;20697;-73
2021/08/09 10:38:44;;;;;;;1.73;1.60;;;26.30;61.30;;;26.81;55.69;98435.19;5003486;28;20622;-73